sensor_id;sensor_type;location;lat;lon;timestamp;temperature;humidity
30520;DHT22;17300;50.374;8.006;2023-09-18T00:02:09;22.60;61.10
30520;DHT22;17300;50.374;8.006;2023-09-18T00:04:36;22.60;61.10
30520;DHT22;17300;50.374;8.006;2023-09-18T00:07:04;22.60;61.10
30520;DHT22;17300;50.374;8.006;2023-09-18T00:09:31;22.60;61.40
30520;DHT22;17300;50.374;8.006;2023-09-18T00:11:58;22.60;61.20
30520;DHT22;17300;50.374;8.006;2023-09-18T00:14:25;22.50;61.10
30520;DHT22;17300;50.374;8.006;2023-09-18T00:16:52;22.50;61.20
30520;DHT22;17300;50.374;8.006;2023-09-18T00:19:18;22.50;61.30
30520;DHT22;17300;50.374;8.006;2023-09-18T00:21:45;22.50;61.40
30520;DHT22;17300;50.374;8.006;2023-09-18T00:24:13;22.40;61.30
30520;DHT22;17300;50.374;8.006;2023-09-18T00:26:40;22.40;61.50
30520;DHT22;17300;50.374;8.006;2023-09-18T00:29:06;22.40;61.40
30520;DHT22;17300;50.374;8.006;2023-09-18T00:31:33;22.40;62.30
30520;DHT22;17300;50.374;8.006;2023-09-18T00:33:59;22.40;61.50
30520;DHT22;17300;50.374;8.006;2023-09-18T00:36:26;22.40;61.50
30520;DHT22;17300;50.374;8.006;2023-09-18T00:38:53;22.40;61.60
30520;DHT22;17300;50.374;8.006;2023-09-18T00:41:21;22.30;61.50
30520;DHT22;17300;50.374;8.006;2023-09-18T00:43:47;22.30;61.60
30520;DHT22;17300;50.374;8.006;2023-09-18T00:46:14;22.30;61.50
30520;DHT22;17300;50.374;8.006;2023-09-18T00:48:41;22.20;61.50
30520;DHT22;17300;50.374;8.006;2023-09-18T00:51:08;22.20;61.60
30520;DHT22;17300;50.374;8.006;2023-09-18T00:53:37;22.20;61.70
30520;DHT22;17300;50.374;8.006;2023-09-18T00:56:04;22.20;61.90
30520;DHT22;17300;50.374;8.006;2023-09-18T00:58:33;22.20;61.80
30520;DHT22;17300;50.374;8.006;2023-09-18T01:01:03;22.10;61.80
30520;DHT22;17300;50.374;8.006;2023-09-18T01:03:30;22.10;62.10
30520;DHT22;17300;50.374;8.006;2023-09-18T01:05:57;22.10;61.80
30520;DHT22;17300;50.374;8.006;2023-09-18T01:08:24;22.10;61.80
30520;DHT22;17300;50.374;8.006;2023-09-18T01:10:56;22.10;62.60
30520;DHT22;17300;50.374;8.006;2023-09-18T01:13:30;22.00;62.30
30520;DHT22;17300;50.374;8.006;2023-09-18T01:16:06;22.00;62.30
30520;DHT22;17300;50.374;8.006;2023-09-18T01:18:34;22.00;62.30
30520;DHT22;17300;50.374;8.006;2023-09-18T01:21:01;22.00;62.10
30520;DHT22;17300;50.374;8.006;2023-09-18T01:23:29;22.00;62.30
30520;DHT22;17300;50.374;8.006;2023-09-18T01:25:56;22.00;62.50
30520;DHT22;17300;50.374;8.006;2023-09-18T01:28:22;22.00;62.50
30520;DHT22;17300;50.374;8.006;2023-09-18T01:30:49;22.00;62.70
30520;DHT22;17300;50.374;8.006;2023-09-18T01:33:16;22.00;62.80
30520;DHT22;17300;50.374;8.006;2023-09-18T01:35:45;22.00;62.90
30520;DHT22;17300;50.374;8.006;2023-09-18T01:38:12;22.10;63.20
30520;DHT22;17300;50.374;8.006;2023-09-18T01:40:40;22.10;63.10
30520;DHT22;17300;50.374;8.006;2023-09-18T01:43:08;22.10;64.20
30520;DHT22;17300;50.374;8.006;2023-09-18T01:45:35;22.10;63.20
30520;DHT22;17300;50.374;8.006;2023-09-18T01:48:04;22.10;63.30
30520;DHT22;17300;50.374;8.006;2023-09-18T01:50:31;22.20;63.50
30520;DHT22;17300;50.374;8.006;2023-09-18T01:52:58;22.20;63.40
30520;DHT22;17300;50.374;8.006;2023-09-18T01:55:25;22.30;63.50
30520;DHT22;17300;50.374;8.006;2023-09-18T01:57:55;22.20;63.40
30520;DHT22;17300;50.374;8.006;2023-09-18T02:00:21;22.30;63.60
30520;DHT22;17300;50.374;8.006;2023-09-18T02:02:48;22.30;63.60
30520;DHT22;17300;50.374;8.006;2023-09-18T02:05:15;22.40;63.70
30520;DHT22;17300;50.374;8.006;2023-09-18T02:07:41;22.40;63.80
30520;DHT22;17300;50.374;8.006;2023-09-18T02:10:08;22.40;63.90
30520;DHT22;17300;50.374;8.006;2023-09-18T02:12:38;22.40;64.10
30520;DHT22;17300;50.374;8.006;2023-09-18T02:15:08;22.50;64.30
30520;DHT22;17300;50.374;8.006;2023-09-18T02:17:36;22.50;64.50
30520;DHT22;17300;50.374;8.006;2023-09-18T02:20:04;22.50;64.40
30520;DHT22;17300;50.374;8.006;2023-09-18T02:22:36;22.60;64.60
30520;DHT22;17300;50.374;8.006;2023-09-18T02:25:05;22.60;64.60
30520;DHT22;17300;50.374;8.006;2023-09-18T02:27:32;22.70;64.70
30520;DHT22;17300;50.374;8.006;2023-09-18T02:29:59;22.70;65.40
30520;DHT22;17300;50.374;8.006;2023-09-18T02:32:27;22.70;64.70
30520;DHT22;17300;50.374;8.006;2023-09-18T02:34:54;22.70;64.90
30520;DHT22;17300;50.374;8.006;2023-09-18T02:37:20;22.80;65.00
30520;DHT22;17300;50.374;8.006;2023-09-18T02:39:47;22.80;64.90
30520;DHT22;17300;50.374;8.006;2023-09-18T02:42:14;22.70;64.60
30520;DHT22;17300;50.374;8.006;2023-09-18T02:44:41;22.80;64.50
30520;DHT22;17300;50.374;8.006;2023-09-18T02:47:07;22.80;64.40
30520;DHT22;17300;50.374;8.006;2023-09-18T02:49:35;22.80;64.60
30520;DHT22;17300;50.374;8.006;2023-09-18T02:52:03;22.70;64.80
30520;DHT22;17300;50.374;8.006;2023-09-18T02:54:30;22.80;65.00
30520;DHT22;17300;50.374;8.006;2023-09-18T02:56:56;22.80;65.10
30520;DHT22;17300;50.374;8.006;2023-09-18T02:59:23;22.80;65.20
30520;DHT22;17300;50.374;8.006;2023-09-18T03:01:50;22.80;65.10
30520;DHT22;17300;50.374;8.006;2023-09-18T03:04:16;22.80;65.10
30520;DHT22;17300;50.374;8.006;2023-09-18T03:06:44;22.80;65.00
30520;DHT22;17300;50.374;8.006;2023-09-18T03:09:11;22.80;65.10
30520;DHT22;17300;50.374;8.006;2023-09-18T03:11:38;22.80;65.00
30520;DHT22;17300;50.374;8.006;2023-09-18T03:14:04;22.80;65.00
30520;DHT22;17300;50.374;8.006;2023-09-18T03:16:31;22.80;65.10
30520;DHT22;17300;50.374;8.006;2023-09-18T03:18:58;22.80;65.10
30520;DHT22;17300;50.374;8.006;2023-09-18T03:21:25;22.70;65.00
30520;DHT22;17300;50.374;8.006;2023-09-18T03:23:53;22.70;65.00
30520;DHT22;17300;50.374;8.006;2023-09-18T03:26:19;22.70;65.20
30520;DHT22;17300;50.374;8.006;2023-09-18T03:28:46;22.70;65.20
30520;DHT22;17300;50.374;8.006;2023-09-18T03:31:13;22.70;65.30
30520;DHT22;17300;50.374;8.006;2023-09-18T03:33:39;22.60;65.20
30520;DHT22;17300;50.374;8.006;2023-09-18T03:36:06;22.70;65.40
30520;DHT22;17300;50.374;8.006;2023-09-18T03:38:33;22.60;65.30
30520;DHT22;17300;50.374;8.006;2023-09-18T03:41:02;22.60;65.40
30520;DHT22;17300;50.374;8.006;2023-09-18T03:43:29;22.60;65.50
30520;DHT22;17300;50.374;8.006;2023-09-18T03:46:02;22.60;65.60
30520;DHT22;17300;50.374;8.006;2023-09-18T03:48:29;22.60;65.70
30520;DHT22;17300;50.374;8.006;2023-09-18T03:51:01;22.60;65.80
30520;DHT22;17300;50.374;8.006;2023-09-18T03:53:28;22.60;65.90
30520;DHT22;17300;50.374;8.006;2023-09-18T03:55:54;22.60;65.90
30520;DHT22;17300;50.374;8.006;2023-09-18T03:58:22;22.60;66.00
30520;DHT22;17300;50.374;8.006;2023-09-18T04:00:49;22.60;66.00
30520;DHT22;17300;50.374;8.006;2023-09-18T04:03:16;22.60;66.00
30520;DHT22;17300;50.374;8.006;2023-09-18T04:05:43;22.60;66.00
30520;DHT22;17300;50.374;8.006;2023-09-18T04:08:10;22.60;66.00
30520;DHT22;17300;50.374;8.006;2023-09-18T04:10:36;22.60;66.10
30520;DHT22;17300;50.374;8.006;2023-09-18T04:13:03;22.50;66.00
30520;DHT22;17300;50.374;8.006;2023-09-18T04:15:31;22.50;66.10
30520;DHT22;17300;50.374;8.006;2023-09-18T04:17:58;22.50;66.20
30520;DHT22;17300;50.374;8.006;2023-09-18T04:20:24;22.50;66.20
30520;DHT22;17300;50.374;8.006;2023-09-18T04:23:16;22.50;66.30
30520;DHT22;17300;50.374;8.006;2023-09-18T04:25:43;22.50;67.10
30520;DHT22;17300;50.374;8.006;2023-09-18T04:28:11;22.50;66.20
30520;DHT22;17300;50.374;8.006;2023-09-18T04:30:39;22.50;66.30
30520;DHT22;17300;50.374;8.006;2023-09-18T04:33:05;22.50;66.40
30520;DHT22;17300;50.374;8.006;2023-09-18T04:35:32;22.50;66.40
30520;DHT22;17300;50.374;8.006;2023-09-18T04:37:59;22.40;66.40
30520;DHT22;17300;50.374;8.006;2023-09-18T04:40:26;22.40;66.40
30520;DHT22;17300;50.374;8.006;2023-09-18T04:42:57;22.50;66.60
30520;DHT22;17300;50.374;8.006;2023-09-18T04:45:24;22.50;66.60
30520;DHT22;17300;50.374;8.006;2023-09-18T04:47:52;22.40;66.40
30520;DHT22;17300;50.374;8.006;2023-09-18T04:50:19;22.40;66.50
30520;DHT22;17300;50.374;8.006;2023-09-18T04:52:45;22.40;66.40
30520;DHT22;17300;50.374;8.006;2023-09-18T04:55:13;22.40;66.40
30520;DHT22;17300;50.374;8.006;2023-09-18T04:57:40;22.40;66.50
30520;DHT22;17300;50.374;8.006;2023-09-18T05:00:07;22.40;66.50
30520;DHT22;17300;50.374;8.006;2023-09-18T05:02:38;22.40;66.60
30520;DHT22;17300;50.374;8.006;2023-09-18T05:05:07;22.40;66.50
30520;DHT22;17300;50.374;8.006;2023-09-18T05:07:35;22.40;66.70
30520;DHT22;17300;50.374;8.006;2023-09-18T05:10:02;22.40;66.50
30520;DHT22;17300;50.374;8.006;2023-09-18T05:12:30;22.40;66.50
30520;DHT22;17300;50.374;8.006;2023-09-18T05:14:57;22.30;66.40
30520;DHT22;17300;50.374;8.006;2023-09-18T05:17:39;22.30;66.50
30520;DHT22;17300;50.374;8.006;2023-09-18T05:20:09;22.30;67.30
30520;DHT22;17300;50.374;8.006;2023-09-18T05:22:38;22.30;66.70
30520;DHT22;17300;50.374;8.006;2023-09-18T05:25:05;22.30;66.70
30520;DHT22;17300;50.374;8.006;2023-09-18T05:27:33;22.30;66.70
30520;DHT22;17300;50.374;8.006;2023-09-18T05:30:00;22.30;66.80
30520;DHT22;17300;50.374;8.006;2023-09-18T05:32:26;22.30;66.90
30520;DHT22;17300;50.374;8.006;2023-09-18T05:34:53;22.30;67.00
30520;DHT22;17300;50.374;8.006;2023-09-18T05:37:21;22.30;67.10
30520;DHT22;17300;50.374;8.006;2023-09-18T05:39:48;22.20;67.10
30520;DHT22;17300;50.374;8.006;2023-09-18T05:42:14;22.20;67.00
30520;DHT22;17300;50.374;8.006;2023-09-18T05:44:42;22.20;67.10
30520;DHT22;17300;50.374;8.006;2023-09-18T05:47:09;22.30;67.30
30520;DHT22;17300;50.374;8.006;2023-09-18T05:49:35;22.30;67.50
30520;DHT22;17300;50.374;8.006;2023-09-18T05:52:02;22.30;67.60
30520;DHT22;17300;50.374;8.006;2023-09-18T05:54:30;22.30;67.70
30520;DHT22;17300;50.374;8.006;2023-09-18T05:56:57;22.30;67.90
30520;DHT22;17300;50.374;8.006;2023-09-18T05:59:23;22.40;68.00
30520;DHT22;17300;50.374;8.006;2023-09-18T06:01:50;22.40;68.00
30520;DHT22;17300;50.374;8.006;2023-09-18T06:04:19;22.40;68.00
30520;DHT22;17300;50.374;8.006;2023-09-18T06:06:46;22.40;68.00
30520;DHT22;17300;50.374;8.006;2023-09-18T06:09:13;22.50;68.10
30520;DHT22;17300;50.374;8.006;2023-09-18T06:11:41;22.50;68.20
30520;DHT22;17300;50.374;8.006;2023-09-18T06:14:09;22.50;68.30
30520;DHT22;17300;50.374;8.006;2023-09-18T06:16:36;22.50;68.20
30520;DHT22;17300;50.374;8.006;2023-09-18T06:19:03;22.50;68.20
30520;DHT22;17300;50.374;8.006;2023-09-18T06:21:29;22.50;68.10
30520;DHT22;17300;50.374;8.006;2023-09-18T06:23:56;22.60;68.30
30520;DHT22;17300;50.374;8.006;2023-09-18T06:26:23;22.60;68.20
30520;DHT22;17300;50.374;8.006;2023-09-18T06:28:51;22.60;68.20
30520;DHT22;17300;50.374;8.006;2023-09-18T06:31:17;22.60;68.20
30520;DHT22;17300;50.374;8.006;2023-09-18T06:33:44;22.60;68.20
30520;DHT22;17300;50.374;8.006;2023-09-18T06:36:11;22.70;68.20
30520;DHT22;17300;50.374;8.006;2023-09-18T06:38:38;22.70;68.30
30520;DHT22;17300;50.374;8.006;2023-09-18T06:41:04;22.70;68.40
30520;DHT22;17300;50.374;8.006;2023-09-18T06:43:31;22.70;68.30
30520;DHT22;17300;50.374;8.006;2023-09-18T06:45:59;22.70;68.50
30520;DHT22;17300;50.374;8.006;2023-09-18T06:48:25;22.80;68.80
30520;DHT22;17300;50.374;8.006;2023-09-18T06:50:57;22.80;68.70
30520;DHT22;17300;50.374;8.006;2023-09-18T06:53:25;22.80;68.50
30520;DHT22;17300;50.374;8.006;2023-09-18T06:55:52;22.80;68.40
30520;DHT22;17300;50.374;8.006;2023-09-18T06:58:18;22.90;68.50
30520;DHT22;17300;50.374;8.006;2023-09-18T07:00:45;22.90;68.30
30520;DHT22;17300;50.374;8.006;2023-09-18T07:03:14;23.00;68.40
30520;DHT22;17300;50.374;8.006;2023-09-18T07:05:40;23.10;68.30
30520;DHT22;17300;50.374;8.006;2023-09-18T07:08:08;23.20;68.40
30520;DHT22;17300;50.374;8.006;2023-09-18T07:10:37;23.20;68.50
30520;DHT22;17300;50.374;8.006;2023-09-18T07:13:04;23.30;68.20
30520;DHT22;17300;50.374;8.006;2023-09-18T07:15:31;23.40;67.90
30520;DHT22;17300;50.374;8.006;2023-09-18T07:17:57;23.50;67.70
30520;DHT22;17300;50.374;8.006;2023-09-18T07:20:25;23.60;67.50
30520;DHT22;17300;50.374;8.006;2023-09-18T07:22:52;23.70;67.40
30520;DHT22;17300;50.374;8.006;2023-09-18T07:25:18;23.80;67.30
30520;DHT22;17300;50.374;8.006;2023-09-18T07:27:45;23.80;67.00
30520;DHT22;17300;50.374;8.006;2023-09-18T07:30:13;23.90;66.50
30520;DHT22;17300;50.374;8.006;2023-09-18T07:32:41;24.00;66.30
30520;DHT22;17300;50.374;8.006;2023-09-18T07:35:09;24.00;66.00
30520;DHT22;17300;50.374;8.006;2023-09-18T07:37:37;24.10;65.80
30520;DHT22;17300;50.374;8.006;2023-09-18T07:40:05;24.10;65.60
30520;DHT22;17300;50.374;8.006;2023-09-18T07:42:32;24.20;65.60
30520;DHT22;17300;50.374;8.006;2023-09-18T07:44:58;24.20;65.20
30520;DHT22;17300;50.374;8.006;2023-09-18T07:47:25;24.30;65.40
30520;DHT22;17300;50.374;8.006;2023-09-18T07:49:52;24.30;65.10
30520;DHT22;17300;50.374;8.006;2023-09-18T07:52:19;24.30;64.90
30520;DHT22;17300;50.374;8.006;2023-09-18T07:54:47;24.40;64.90
30520;DHT22;17300;50.374;8.006;2023-09-18T07:57:15;24.50;64.80
30520;DHT22;17300;50.374;8.006;2023-09-18T07:59:42;24.50;65.10
30520;DHT22;17300;50.374;8.006;2023-09-18T08:02:09;24.60;65.20
30520;DHT22;17300;50.374;8.006;2023-09-18T08:04:36;24.70;65.10
30520;DHT22;17300;50.374;8.006;2023-09-18T08:07:03;24.80;65.10
30520;DHT22;17300;50.374;8.006;2023-09-18T08:09:31;24.90;64.60
30520;DHT22;17300;50.374;8.006;2023-09-18T08:12:00;25.00;64.30
30520;DHT22;17300;50.374;8.006;2023-09-18T08:14:27;25.10;63.80
30520;DHT22;17300;50.374;8.006;2023-09-18T08:16:56;25.10;63.70
30520;DHT22;17300;50.374;8.006;2023-09-18T08:19:23;25.20;63.50
30520;DHT22;17300;50.374;8.006;2023-09-18T08:21:52;25.30;63.40
30520;DHT22;17300;50.374;8.006;2023-09-18T08:24:19;25.40;63.10
30520;DHT22;17300;50.374;8.006;2023-09-18T08:26:46;25.50;62.80
30520;DHT22;17300;50.374;8.006;2023-09-18T08:29:14;25.50;62.50
30520;DHT22;17300;50.374;8.006;2023-09-18T08:31:41;25.60;62.20
30520;DHT22;17300;50.374;8.006;2023-09-18T08:34:08;25.60;62.10
30520;DHT22;17300;50.374;8.006;2023-09-18T08:36:35;25.60;61.70
30520;DHT22;17300;50.374;8.006;2023-09-18T08:39:01;25.70;61.50
30520;DHT22;17300;50.374;8.006;2023-09-18T08:41:31;25.70;61.30
30520;DHT22;17300;50.374;8.006;2023-09-18T08:44:00;25.70;60.90
30520;DHT22;17300;50.374;8.006;2023-09-18T08:46:30;25.70;60.90
30520;DHT22;17300;50.374;8.006;2023-09-18T08:48:59;25.70;60.90
30520;DHT22;17300;50.374;8.006;2023-09-18T08:51:27;25.70;60.60
30520;DHT22;17300;50.374;8.006;2023-09-18T08:53:55;25.70;60.30
30520;DHT22;17300;50.374;8.006;2023-09-18T08:56:22;25.70;60.90
30520;DHT22;17300;50.374;8.006;2023-09-18T08:58:49;25.70;60.10
30520;DHT22;17300;50.374;8.006;2023-09-18T09:01:17;25.80;60.30
30520;DHT22;17300;50.374;8.006;2023-09-18T09:03:46;25.70;60.10
30520;DHT22;17300;50.374;8.006;2023-09-18T09:06:13;25.70;59.90
30520;DHT22;17300;50.374;8.006;2023-09-18T09:08:39;25.80;60.00
30520;DHT22;17300;50.374;8.006;2023-09-18T09:11:06;25.80;59.80
30520;DHT22;17300;50.374;8.006;2023-09-18T09:13:33;25.80;59.80
30520;DHT22;17300;50.374;8.006;2023-09-18T09:16:00;25.80;59.70
30520;DHT22;17300;50.374;8.006;2023-09-18T09:18:29;25.80;59.60
30520;DHT22;17300;50.374;8.006;2023-09-18T09:20:59;25.80;59.70
30520;DHT22;17300;50.374;8.006;2023-09-18T09:23:27;25.80;59.60
30520;DHT22;17300;50.374;8.006;2023-09-18T09:25:56;25.80;59.60
30520;DHT22;17300;50.374;8.006;2023-09-18T09:28:37;25.80;59.50
30520;DHT22;17300;50.374;8.006;2023-09-18T09:31:04;25.80;59.50
30520;DHT22;17300;50.374;8.006;2023-09-18T09:33:32;25.90;59.50
30520;DHT22;17300;50.374;8.006;2023-09-18T09:36:00;25.90;59.50
30520;DHT22;17300;50.374;8.006;2023-09-18T09:38:32;25.90;59.30
30520;DHT22;17300;50.374;8.006;2023-09-18T09:40:59;25.90;59.20
30520;DHT22;17300;50.374;8.006;2023-09-18T09:43:27;26.00;59.40
30520;DHT22;17300;50.374;8.006;2023-09-18T09:45:57;26.00;59.20
30520;DHT22;17300;50.374;8.006;2023-09-18T09:48:25;26.00;58.70
30520;DHT22;17300;50.374;8.006;2023-09-18T09:50:52;26.00;58.80
30520;DHT22;17300;50.374;8.006;2023-09-18T09:53:44;26.00;58.50
30520;DHT22;17300;50.374;8.006;2023-09-18T09:56:12;26.00;58.40
30520;DHT22;17300;50.374;8.006;2023-09-18T09:58:39;26.00;58.60
30520;DHT22;17300;50.374;8.006;2023-09-18T10:01:12;26.00;58.40
30520;DHT22;17300;50.374;8.006;2023-09-18T10:03:43;26.00;58.50
30520;DHT22;17300;50.374;8.006;2023-09-18T10:06:11;26.00;58.60
30520;DHT22;17300;50.374;8.006;2023-09-18T10:08:39;26.00;58.50
30520;DHT22;17300;50.374;8.006;2023-09-18T10:11:08;26.00;58.50
30520;DHT22;17300;50.374;8.006;2023-09-18T10:13:45;26.00;58.50
30520;DHT22;17300;50.374;8.006;2023-09-18T10:16:14;26.10;58.60
30520;DHT22;17300;50.374;8.006;2023-09-18T10:18:55;26.20;58.80
30520;DHT22;17300;50.374;8.006;2023-09-18T10:21:26;26.20;58.30
30520;DHT22;17300;50.374;8.006;2023-09-18T10:24:02;26.30;58.40
30520;DHT22;17300;50.374;8.006;2023-09-18T10:26:32;26.40;58.10
30520;DHT22;17300;50.374;8.006;2023-09-18T10:29:04;26.40;58.00
30520;DHT22;17300;50.374;8.006;2023-09-18T10:31:34;26.40;58.20
30520;DHT22;17300;50.374;8.006;2023-09-18T10:34:03;26.40;58.20
30520;DHT22;17300;50.374;8.006;2023-09-18T10:36:31;26.50;58.20
30520;DHT22;17300;50.374;8.006;2023-09-18T10:38:59;26.60;58.20
30520;DHT22;17300;50.374;8.006;2023-09-18T10:41:27;26.60;58.10
30520;DHT22;17300;50.374;8.006;2023-09-18T10:43:56;26.70;58.10
30520;DHT22;17300;50.374;8.006;2023-09-18T10:46:24;26.70;57.70
30520;DHT22;17300;50.374;8.006;2023-09-18T10:48:52;26.80;57.50
30520;DHT22;17300;50.374;8.006;2023-09-18T10:51:20;26.80;57.30
30520;DHT22;17300;50.374;8.006;2023-09-18T10:53:47;26.80;57.20
30520;DHT22;17300;50.374;8.006;2023-09-18T10:56:14;26.80;57.00
30520;DHT22;17300;50.374;8.006;2023-09-18T10:58:43;26.80;57.00
30520;DHT22;17300;50.374;8.006;2023-09-18T11:01:12;26.80;56.70
30520;DHT22;17300;50.374;8.006;2023-09-18T11:03:39;26.80;56.40
30520;DHT22;17300;50.374;8.006;2023-09-18T11:06:08;26.70;56.60
30520;DHT22;17300;50.374;8.006;2023-09-18T11:08:43;26.80;56.70
30520;DHT22;17300;50.374;8.006;2023-09-18T11:11:12;26.80;56.60
30520;DHT22;17300;50.374;8.006;2023-09-18T11:13:41;26.70;56.70
30520;DHT22;17300;50.374;8.006;2023-09-18T11:16:18;26.80;56.70
30520;DHT22;17300;50.374;8.006;2023-09-18T11:18:51;26.80;56.20
30520;DHT22;17300;50.374;8.006;2023-09-18T11:21:23;26.70;56.40
30520;DHT22;17300;50.374;8.006;2023-09-18T11:23:58;26.70;56.40
30520;DHT22;17300;50.374;8.006;2023-09-18T11:26:29;26.70;56.40
30520;DHT22;17300;50.374;8.006;2023-09-18T11:28:59;26.80;56.70
30520;DHT22;17300;50.374;8.006;2023-09-18T11:31:42;26.80;56.70
30520;DHT22;17300;50.374;8.006;2023-09-18T11:34:14;26.80;56.40
30520;DHT22;17300;50.374;8.006;2023-09-18T11:36:41;26.80;56.40
30520;DHT22;17300;50.374;8.006;2023-09-18T11:39:08;26.80;56.60
30520;DHT22;17300;50.374;8.006;2023-09-18T11:41:37;26.80;56.60
30520;DHT22;17300;50.374;8.006;2023-09-18T11:44:31;26.90;56.80
30520;DHT22;17300;50.374;8.006;2023-09-18T11:47:01;26.90;56.00
30520;DHT22;17300;50.374;8.006;2023-09-18T11:49:30;26.90;56.30
30520;DHT22;17300;50.374;8.006;2023-09-18T11:51:58;27.00;56.40
30520;DHT22;17300;50.374;8.006;2023-09-18T11:54:27;27.00;56.60
30520;DHT22;17300;50.374;8.006;2023-09-18T11:56:54;27.10;56.60
30520;DHT22;17300;50.374;8.006;2023-09-18T11:59:33;27.20;56.90
30520;DHT22;17300;50.374;8.006;2023-09-18T12:02:03;27.30;56.40
30520;DHT22;17300;50.374;8.006;2023-09-18T12:04:31;27.50;57.10
30520;DHT22;17300;50.374;8.006;2023-09-18T12:06:58;27.60;56.90
30520;DHT22;17300;50.374;8.006;2023-09-18T12:09:26;27.80;56.50
30520;DHT22;17300;50.374;8.006;2023-09-18T12:11:53;28.00;56.10
30520;DHT22;17300;50.374;8.006;2023-09-18T12:14:21;28.10;55.80
30520;DHT22;17300;50.374;8.006;2023-09-18T12:16:47;28.20;55.50
30520;DHT22;17300;50.374;8.006;2023-09-18T12:19:17;28.30;55.20
30520;DHT22;17300;50.374;8.006;2023-09-18T12:21:46;28.40;55.00
30520;DHT22;17300;50.374;8.006;2023-09-18T12:24:14;28.50;54.80
30520;DHT22;17300;50.374;8.006;2023-09-18T12:26:41;28.60;54.50
30520;DHT22;17300;50.374;8.006;2023-09-18T12:29:07;28.70;54.30
30520;DHT22;17300;50.374;8.006;2023-09-18T12:31:36;28.70;54.00
30520;DHT22;17300;50.374;8.006;2023-09-18T12:34:02;28.70;53.70
30520;DHT22;17300;50.374;8.006;2023-09-18T12:36:30;28.70;53.40
30520;DHT22;17300;50.374;8.006;2023-09-18T12:38:58;28.70;53.70
30520;DHT22;17300;50.374;8.006;2023-09-18T12:41:26;28.60;53.00
30520;DHT22;17300;50.374;8.006;2023-09-18T12:43:53;28.60;53.00
30520;DHT22;17300;50.374;8.006;2023-09-18T12:46:19;28.60;53.10
30520;DHT22;17300;50.374;8.006;2023-09-18T12:48:48;28.60;53.60
30520;DHT22;17300;50.374;8.006;2023-09-18T12:51:14;28.60;53.40
30520;DHT22;17300;50.374;8.006;2023-09-18T12:53:46;28.60;53.30
30520;DHT22;17300;50.374;8.006;2023-09-18T12:56:13;28.60;53.20
30520;DHT22;17300;50.374;8.006;2023-09-18T12:58:41;28.70;53.10
30520;DHT22;17300;50.374;8.006;2023-09-18T13:01:09;28.70;53.10
30520;DHT22;17300;50.374;8.006;2023-09-18T13:03:42;28.70;52.90
30520;DHT22;17300;50.374;8.006;2023-09-18T13:06:11;28.70;52.10
30520;DHT22;17300;50.374;8.006;2023-09-18T13:08:37;28.80;52.30
30520;DHT22;17300;50.374;8.006;2023-09-18T13:11:05;28.70;52.10
30520;DHT22;17300;50.374;8.006;2023-09-18T13:13:33;28.70;52.00
30520;DHT22;17300;50.374;8.006;2023-09-18T13:16:00;28.70;51.80
30520;DHT22;17300;50.374;8.006;2023-09-18T13:18:30;28.60;51.30
30520;DHT22;17300;50.374;8.006;2023-09-18T13:20:57;28.60;51.40
30520;DHT22;17300;50.374;8.006;2023-09-18T13:23:28;28.50;51.30
30520;DHT22;17300;50.374;8.006;2023-09-18T13:25:59;28.40;51.10
30520;DHT22;17300;50.374;8.006;2023-09-18T13:28:28;28.30;51.10
30520;DHT22;17300;50.374;8.006;2023-09-18T13:30:56;28.30;51.50
30520;DHT22;17300;50.374;8.006;2023-09-18T13:33:23;28.20;51.30
30520;DHT22;17300;50.374;8.006;2023-09-18T13:35:51;28.10;51.40
30520;DHT22;17300;50.374;8.006;2023-09-18T13:38:21;28.10;51.50
30520;DHT22;17300;50.374;8.006;2023-09-18T13:40:48;28.00;51.50
30520;DHT22;17300;50.374;8.006;2023-09-18T13:43:15;28.00;51.60
30520;DHT22;17300;50.374;8.006;2023-09-18T13:45:45;28.00;51.50
30520;DHT22;17300;50.374;8.006;2023-09-18T13:48:12;28.00;51.70
30520;DHT22;17300;50.374;8.006;2023-09-18T13:50:40;28.00;51.90
30520;DHT22;17300;50.374;8.006;2023-09-18T13:53:07;28.10;52.30
30520;DHT22;17300;50.374;8.006;2023-09-18T13:55:34;28.20;52.40
30520;DHT22;17300;50.374;8.006;2023-09-18T13:58:01;28.30;52.40
30520;DHT22;17300;50.374;8.006;2023-09-18T14:00:29;28.30;51.90
30520;DHT22;17300;50.374;8.006;2023-09-18T14:02:57;28.40;51.90
30520;DHT22;17300;50.374;8.006;2023-09-18T14:05:25;28.40;51.60
30520;DHT22;17300;50.374;8.006;2023-09-18T14:07:52;28.60;51.20
30520;DHT22;17300;50.374;8.006;2023-09-18T14:10:23;28.60;51.10
30520;DHT22;17300;50.374;8.006;2023-09-18T14:12:49;28.60;50.70
30520;DHT22;17300;50.374;8.006;2023-09-18T14:15:16;28.70;50.70
30520;DHT22;17300;50.374;8.006;2023-09-18T14:17:44;28.70;50.50
30520;DHT22;17300;50.374;8.006;2023-09-18T14:20:12;28.80;50.40
30520;DHT22;17300;50.374;8.006;2023-09-18T14:22:40;28.80;50.50
30520;DHT22;17300;50.374;8.006;2023-09-18T14:25:07;28.80;50.20
30520;DHT22;17300;50.374;8.006;2023-09-18T14:27:35;28.70;49.90
30520;DHT22;17300;50.374;8.006;2023-09-18T14:30:02;28.80;49.70
30520;DHT22;17300;50.374;8.006;2023-09-18T14:32:31;28.70;49.60
30520;DHT22;17300;50.374;8.006;2023-09-18T14:34:58;28.60;49.70
30520;DHT22;17300;50.374;8.006;2023-09-18T14:37:28;28.60;49.70
30520;DHT22;17300;50.374;8.006;2023-09-18T14:39:55;28.60;49.70
30520;DHT22;17300;50.374;8.006;2023-09-18T14:42:22;28.50;49.80
30520;DHT22;17300;50.374;8.006;2023-09-18T14:44:49;28.40;49.70
30520;DHT22;17300;50.374;8.006;2023-09-18T14:47:15;28.40;49.70
30520;DHT22;17300;50.374;8.006;2023-09-18T14:49:42;28.40;49.70
30520;DHT22;17300;50.374;8.006;2023-09-18T14:52:11;28.30;49.60
30520;DHT22;17300;50.374;8.006;2023-09-18T14:54:39;28.20;49.70
30520;DHT22;17300;50.374;8.006;2023-09-18T14:57:07;28.10;49.60
30520;DHT22;17300;50.374;8.006;2023-09-18T14:59:33;28.10;49.70
30520;DHT22;17300;50.374;8.006;2023-09-18T15:02:00;28.00;49.80
30520;DHT22;17300;50.374;8.006;2023-09-18T15:04:28;27.90;49.90
30520;DHT22;17300;50.374;8.006;2023-09-18T15:06:55;27.80;50.00
30520;DHT22;17300;50.374;8.006;2023-09-18T15:09:21;27.80;50.10
30520;DHT22;17300;50.374;8.006;2023-09-18T15:11:49;27.70;50.10
30520;DHT22;17300;50.374;8.006;2023-09-18T15:14:16;27.60;50.00
30520;DHT22;17300;50.374;8.006;2023-09-18T15:16:42;27.60;50.00
30520;DHT22;17300;50.374;8.006;2023-09-18T15:19:09;27.50;50.00
30520;DHT22;17300;50.374;8.006;2023-09-18T15:21:36;27.50;50.20
30520;DHT22;17300;50.374;8.006;2023-09-18T15:24:06;27.40;50.30
30520;DHT22;17300;50.374;8.006;2023-09-18T15:26:32;27.30;50.30
30520;DHT22;17300;50.374;8.006;2023-09-18T15:29:01;27.30;50.40
30520;DHT22;17300;50.374;8.006;2023-09-18T15:31:28;27.30;50.40
30520;DHT22;17300;50.374;8.006;2023-09-18T15:33:55;27.20;50.50
30520;DHT22;17300;50.374;8.006;2023-09-18T15:36:21;27.20;50.60